Main page
METAR-TAF:

METAR-TAF

Airports :

Rarotonga, Cook Islands

Rarotonga International Airport

latitude: 21-12S, longitude: 159-49W, elevation: 7 m

Current weather observation

The report was made 28 minutes ago, at 16:00 UTC
Wind 6 kt from the South/Southeast
Temperature 23°C
Humidity 65%
Pressure 1010 hPa
Visibility 10 km or more
Scattered clouds at a height of 2300 ft
Broken clouds at a height of 9000 ft

METAR: NCRG 241600Z 15006KT 9999 SCT023 BKN090 23/16 Q1010

Time: 06:28 (16:28 UTC)

Forecast

The report was made 5 hours and 21 minutes ago, at 11:07 UTC
Forecast valid from 24 at 12 UTC to 25 at 12 UTC
Wind 14 kt from the Southeast
Visibility 10 km or more
Scattered clouds at a height of 2100 ft

TAF: NCRG 241107Z 2412/2512 13014KT 9999 SCT021

Weather observations and forecasts of more than 4000 airports (METAR and TAF reports).

The available stations are represented by yellow and red dots on the map.

Hover mouse over dot to see the name of the station.

Then click to see weather observations and forecasts.

To change the map : click on the green buttons with a black cross to zoom in, on the green button with a dash to zoom out, or on the green arrows for adjacent maps.


METAR-TAF: